Time;durP1;ratioP1;P1;durP2;ratioP2;P2;SDS_P1;SDS_P2;PMS_P1;PMS_P2;Temp;Humidity;BMP_temperature;BMP_pressure;BME280_temperature;BME280_humidity;BME280_pressure;Samples;Min_cycle;Max_cycle;Signal;HPM_P1;HPM_P2
2022/05/22 00:01:53;;;;;;;11.40;3.67;;;;;;;;;;5008904;28;20034;-73
2022/05/22 00:04:19;;;;;;;11.45;3.88;;;;;;;;;;5013270;28;20042;-74
2022/05/22 00:06:45;;;;;;;12.45;3.95;;;;;;;;;;5011919;28;20095;-74
2022/05/22 00:09:11;;;;;;;13.10;3.90;;;;;;;;;;5011708;28;20088;-73
2022/05/22 00:11:38;;;;;;;12.00;4.15;;;;;;;;;;5011734;28;20504;-73
2022/05/22 00:14:04;;;;;;;16.23;4.20;;;;;;;;;;5010690;28;20088;-74
2022/05/22 00:16:36;;;;;;;11.75;4.07;;;;;;;;;;5014254;28;20085;-74
2022/05/22 00:19:02;;;;;;;11.57;3.90;;;;;;;;;;5013767;28;20049;-74
2022/05/22 00:21:28;;;;;;;18.13;3.90;;;;;;;;;;5004525;28;20492;-74
2022/05/22 00:23:54;;;;;;;10.85;4.00;;;;;;;;;;5012872;28;20042;-75
2022/05/22 00:26:20;;;;;;;13.30;4.15;;;;;;;;;;5010197;28;20720;-75
2022/05/22 00:28:46;;;;;;;10.20;3.53;;;;;;;;;;5014442;28;20038;-74
2022/05/22 00:31:12;;;;;;;14.25;4.22;;;;;;;;;;5011049;28;20083;-73
2022/05/22 00:33:38;;;;;;;15.25;3.83;;;;;;;;;;5011159;28;20046;-73
2022/05/22 00:36:04;;;;;;;11.25;4.13;;;;;;;;;;5012656;28;20038;-74
2022/05/22 00:38:30;;;;;;;13.73;4.57;;;;;;;;;;5012201;28;20377;-73
2022/05/22 00:40:56;;;;;;;11.15;3.78;;;;;;;;;;5011520;28;20049;-73
2022/05/22 00:43:36;;;;;;;13.30;4.32;;;;;;;;;;5011714;28;20132;-73
2022/05/22 00:46:04;;;;;;;12.70;4.28;;;;;;;;;;5005461;28;20100;-73
2022/05/22 00:48:30;;;;;;;11.82;3.90;;;;;;;;;;5014275;28;20107;-73
2022/05/22 00:51:00;;;;;;;9.98;3.60;;;;;;;;;;5013196;28;20042;-73
2022/05/22 00:53:27;;;;;;;11.80;4.15;;;;;;;;;;5011665;28;20048;-74
2022/05/22 00:55:53;;;;;;;11.82;3.88;;;;;;;;;;5010996;28;20128;-73
2022/05/22 00:58:21;;;;;;;12.30;4.60;;;;;;;;;;5012910;28;20042;-74
2022/05/22 01:00:48;;;;;;;10.13;4.50;;;;;;;;;;5011837;28;20054;-74
2022/05/22 01:03:29;;;;;;;14.00;4.72;;;;;;;;;;5007481;28;20039;-74
2022/05/22 01:05:58;;;;;;;11.27;3.70;;;;;;;;;;5009798;28;20124;-74
2022/05/22 01:08:24;;;;;;;10.50;4.18;;;;;;;;;;5009909;28;20052;-74
2022/05/22 01:10:55;;;;;;;11.82;4.30;;;;;;;;;;5011193;28;20089;-74
2022/05/22 01:13:24;;;;;;;12.27;4.50;;;;;;;;;;5010317;28;20046;-73
2022/05/22 01:15:50;;;;;;;11.90;3.90;;;;;;;;;;5011602;28;20142;-73
2022/05/22 01:18:16;;;;;;;10.43;4.05;;;;;;;;;;5011549;28;20061;-73
2022/05/22 01:20:49;;;;;;;11.15;3.95;;;;;;;;;;5012291;28;20495;-73
2022/05/22 01:23:16;;;;;;;12.57;3.90;;;;;;;;;;5011277;28;20485;-73
2022/05/22 01:25:42;;;;;;;9.52;3.80;;;;;;;;;;5011785;28;20048;-73
2022/05/22 01:28:09;;;;;;;12.15;3.72;;;;;;;;;;5009375;28;20042;-73
2022/05/22 01:30:36;;;;;;;9.93;3.92;;;;;;;;;;5012185;28;20092;-73
2022/05/22 01:33:02;;;;;;;9.75;3.92;;;;;;;;;;5007920;28;20459;-73
2022/05/22 01:35:28;;;;;;;9.98;3.83;;;;;;;;;;5010643;28;20046;-73
2022/05/22 01:37:55;;;;;;;10.77;3.63;;;;;;;;;;5012030;28;20049;-73
2022/05/22 01:40:21;;;;;;;10.57;3.33;;;;;;;;;;5009487;28;20038;-73
2022/05/22 01:42:47;;;;;;;10.25;3.63;;;;;;;;;;5010781;28;20507;-73
2022/05/22 01:45:14;;;;;;;11.30;3.53;;;;;;;;;;5011705;28;20404;-73
2022/05/22 01:47:40;;;;;;;8.80;3.40;;;;;;;;;;5011280;28;20111;-74
2022/05/22 01:50:07;;;;;;;8.25;3.25;;;;;;;;;;5012227;28;20060;-74
2022/05/22 01:52:33;;;;;;;11.05;3.83;;;;;;;;;;5016200;28;20042;-74
2022/05/22 01:54:59;;;;;;;8.60;3.70;;;;;;;;;;5015682;28;20509;-74
2022/05/22 01:57:25;;;;;;;9.25;3.50;;;;;;;;;;5013009;28;20113;-72
2022/05/22 01:59:51;;;;;;;10.63;3.72;;;;;;;;;;5012072;28;20049;-73
2022/05/22 02:02:17;;;;;;;11.68;4.10;;;;;;;;;;5015203;28;20129;-74
2022/05/22 02:04:43;;;;;;;10.48;4.25;;;;;;;;;;5012855;28;20407;-74
2022/05/22 02:09:54;;;;;;;13.75;4.82;;;;;;;;;;5015912;28;20492;-74
2022/05/22 02:12:20;;;;;;;13.50;4.75;;;;;;;;;;5014135;28;20053;-74
2022/05/22 02:14:46;;;;;;;12.65;4.22;;;;;;;;;;5014655;28;20037;-74
2022/05/22 02:17:12;;;;;;;10.75;4.38;;;;;;;;;;5016799;28;20374;-74
2022/05/22 02:19:38;;;;;;;14.98;4.80;;;;;;;;;;5015816;28;20077;-73
2022/05/22 02:22:04;;;;;;;9.93;4.38;;;;;;;;;;5016551;28;20046;-73
2022/05/22 02:24:30;;;;;;;11.63;4.80;;;;;;;;;;5013240;28;20124;-74
2022/05/22 02:26:56;;;;;;;11.68;3.83;;;;;;;;;;5014526;28;20492;-74
2022/05/22 02:29:22;;;;;;;13.10;4.20;;;;;;;;;;5002454;28;20057;-74
2022/05/22 02:31:48;;;;;;;9.93;4.60;;;;;;;;;;4996936;28;20046;-74
2022/05/22 02:34:14;;;;;;;13.02;4.68;;;;;;;;;;5013048;28;20041;-74
2022/05/22 02:36:40;;;;;;;10.85;4.82;;;;;;;;;;5013311;28;20508;-73
2022/05/22 02:39:06;;;;;;;11.02;5.03;;;;;;;;;;5015307;28;20048;-73
2022/05/22 02:41:32;;;;;;;9.75;4.63;;;;;;;;;;5012120;28;20069;-73
2022/05/22 02:43:58;;;;;;;11.50;5.03;;;;;;;;;;5014041;28;20049;-73
2022/05/22 02:46:24;;;;;;;13.00;4.60;;;;;;;;;;5016342;28;20504;-74
2022/05/22 02:48:51;;;;;;;10.15;4.53;;;;;;;;;;5014282;28;20081;-74
2022/05/22 02:51:19;;;;;;;10.55;5.18;;;;;;;;;;5014544;28;20054;-73
2022/05/22 02:53:45;;;;;;;13.35;5.57;;;;;;;;;;5015468;28;20049;-73
2022/05/22 02:56:14;;;;;;;16.35;6.07;;;;;;;;;;5014575;28;20049;-73
2022/05/22 02:58:40;;;;;;;11.65;5.55;;;;;;;;;;5014114;28;20095;-73
2022/05/22 03:01:06;;;;;;;11.27;6.00;;;;;;;;;;5013153;28;20127;-73
2022/05/22 03:03:32;;;;;;;13.45;6.70;;;;;;;;;;5013266;28;20046;-73
2022/05/22 03:08:43;;;;;;;15.85;7.15;;;;;;;;;;5013680;28;20051;-74
2022/05/22 03:11:09;;;;;;;14.52;7.40;;;;;;;;;;5013834;28;20408;-74
2022/05/22 03:13:36;;;;;;;16.45;7.32;;;;;;;;;;5014004;28;20050;-73
2022/05/22 03:16:02;;;;;;;14.63;6.55;;;;;;;;;;5013113;28;20053;-73
2022/05/22 03:18:28;;;;;;;13.15;5.75;;;;;;;;;;5015680;28;20046;-72
2022/05/22 03:20:54;;;;;;;15.85;7.28;;;;;;;;;;5014292;28;20041;-74
2022/05/22 03:23:20;;;;;;;15.48;6.75;;;;;;;;;;5013874;28;20042;-73
2022/05/22 03:25:46;;;;;;;10.38;5.63;;;;;;;;;;5013370;28;20121;-73
2022/05/22 03:28:13;;;;;;;13.57;5.80;;;;;;;;;;5012920;28;20061;-73
2022/05/22 03:30:39;;;;;;;13.82;6.55;;;;;;;;;;5014331;28;20042;-73
2022/05/22 03:33:05;;;;;;;16.73;5.95;;;;;;;;;;5014303;28;20092;-73
2022/05/22 03:35:31;;;;;;;13.20;5.50;;;;;;;;;;5019375;28;20046;-73
2022/05/22 03:37:57;;;;;;;14.55;6.07;;;;;;;;;;5012382;28;20129;-73
2022/05/22 03:40:23;;;;;;;13.00;5.85;;;;;;;;;;5008178;28;20130;-73
2022/05/22 03:42:49;;;;;;;14.05;5.90;;;;;;;;;;5003661;28;20034;-73
2022/05/22 03:45:15;;;;;;;13.68;5.95;;;;;;;;;;5012861;28;20046;-73
2022/05/22 03:47:41;;;;;;;11.68;6.20;;;;;;;;;;5014028;28;20042;-73
2022/05/22 03:50:08;;;;;;;17.83;6.00;;;;;;;;;;5012621;28;20377;-73
2022/05/22 03:52:36;;;;;;;13.38;5.93;;;;;;;;;;5013536;28;20042;-73
2022/05/22 03:55:02;;;;;;;14.13;6.00;;;;;;;;;;5029002;28;20145;-73
2022/05/22 03:57:28;;;;;;;15.20;6.28;;;;;;;;;;5017748;28;20056;-73
2022/05/22 03:59:54;;;;;;;14.43;6.05;;;;;;;;;;5013624;28;20044;-74
2022/05/22 04:02:20;;;;;;;12.65;5.70;;;;;;;;;;5014798;28;20053;-74
2022/05/22 04:04:46;;;;;;;10.82;5.90;;;;;;;;;;5014555;28;20085;-74
2022/05/22 04:07:13;;;;;;;14.82;6.00;;;;;;;;;;5011455;28;20081;-74
2022/05/22 04:09:39;;;;;;;14.02;5.85;;;;;;;;;;5010522;28;20489;-74
2022/05/22 04:12:06;;;;;;;11.85;5.82;;;;;;;;;;5006640;28;20160;-74
2022/05/22 04:14:32;;;;;;;12.07;5.80;;;;;;;;;;5008141;28;20117;-74
2022/05/22 04:16:58;;;;;;;14.10;6.00;;;;;;;;;;5009030;28;20137;-74
2022/05/22 04:19:24;;;;;;;9.57;5.82;;;;;;;;;;5013398;28;20034;-74
2022/05/22 04:21:50;;;;;;;11.82;5.97;;;;;;;;;;5014159;28;20038;-74
2022/05/22 04:27:04;;;;;;;12.05;6.05;;;;;;;;;;5007845;28;20054;-74
2022/05/22 04:29:31;;;;;;;10.68;5.72;;;;;;;;;;5001858;28;20469;-74
2022/05/22 04:31:57;;;;;;;13.20;6.43;;;;;;;;;;5013633;28;20038;-74
2022/05/22 04:34:23;;;;;;;13.95;6.10;;;;;;;;;;5013440;28;20085;-74
2022/05/22 04:36:49;;;;;;;9.57;5.38;;;;;;;;;;5012748;28;20518;-74
2022/05/22 04:39:15;;;;;;;10.48;5.60;;;;;;;;;;5013748;28;20046;-75
2022/05/22 04:41:41;;;;;;;12.75;6.25;;;;;;;;;;5012322;28;20045;-74
2022/05/22 04:44:07;;;;;;;13.73;6.13;;;;;;;;;;5012835;28;20054;-74
2022/05/22 04:46:34;;;;;;;11.98;6.10;;;;;;;;;;5012499;28;20049;-74
2022/05/22 04:49:00;;;;;;;12.88;6.25;;;;;;;;;;5013586;28;20092;-73
2022/05/22 04:51:26;;;;;;;12.48;6.25;;;;;;;;;;5013229;28;20041;-74
2022/05/22 04:53:52;;;;;;;12.30;6.38;;;;;;;;;;5011957;28;20038;-73
2022/05/22 04:56:19;;;;;;;11.57;6.28;;;;;;;;;;5010809;28;20042;-74
2022/05/22 04:58:45;;;;;;;14.73;6.72;;;;;;;;;;5010312;28;20412;-74
2022/05/22 05:01:11;;;;;;;13.10;6.70;;;;;;;;;;5013580;28;20052;-74
2022/05/22 05:03:37;;;;;;;13.25;6.32;;;;;;;;;;5008006;28;20046;-74
2022/05/22 05:06:03;;;;;;;10.63;6.50;;;;;;;;;;5013425;28;20048;-73
2022/05/22 05:08:30;;;;;;;13.77;6.78;;;;;;;;;;5006437;28;20041;-74
2022/05/22 05:10:57;;;;;;;15.23;7.03;;;;;;;;;;4999765;28;20069;-73
2022/05/22 05:13:24;;;;;;;14.63;7.55;;;;;;;;;;4997820;28;20096;-73
2022/05/22 05:15:59;;;;;;;15.98;7.50;;;;;;;;;;5002000;28;20046;-74
2022/05/22 05:18:25;;;;;;;14.43;7.65;;;;;;;;;;4994204;28;20044;-74
2022/05/22 05:20:51;;;;;;;13.40;7.30;;;;;;;;;;5010411;28;20050;-74
2022/05/22 05:23:17;;;;;;;15.13;7.68;;;;;;;;;;5010882;28;20129;-74
2022/05/22 05:25:43;;;;;;;18.00;8.00;;;;;;;;;;5012498;28;20121;-73
2022/05/22 05:28:09;;;;;;;16.48;7.05;;;;;;;;;;5011159;28;20515;-74
2022/05/22 05:30:35;;;;;;;15.98;7.65;;;;;;;;;;5012475;28;20046;-74
2022/05/22 05:33:01;;;;;;;12.75;6.55;;;;;;;;;;5012931;28;20042;-73
2022/05/22 05:35:28;;;;;;;16.00;6.38;;;;;;;;;;5012914;28;20060;-73
2022/05/22 05:37:54;;;;;;;16.67;6.18;;;;;;;;;;5005790;28;20153;-73
2022/05/22 05:40:20;;;;;;;15.10;5.38;;;;;;;;;;5010863;28;20044;-73
2022/05/22 05:42:48;;;;;;;16.75;5.00;;;;;;;;;;5012335;28;20045;-74
2022/05/22 05:45:15;;;;;;;14.38;5.10;;;;;;;;;;5012316;28;20496;-74
2022/05/22 05:47:41;;;;;;;12.68;4.43;;;;;;;;;;5010806;28;20107;-74
2022/05/22 05:50:08;;;;;;;13.38;4.45;;;;;;;;;;5005504;28;20623;-74
2022/05/22 05:52:34;;;;;;;13.07;4.40;;;;;;;;;;5009685;28;20108;-74
2022/05/22 05:55:00;;;;;;;13.32;4.65;;;;;;;;;;5012785;28;20046;-74
2022/05/22 05:57:26;;;;;;;9.52;3.60;;;;;;;;;;5008566;28;20048;-74
2022/05/22 05:59:55;;;;;;;13.60;3.75;;;;;;;;;;5010996;28;20125;-74
2022/05/22 06:02:21;;;;;;;11.77;3.90;;;;;;;;;;5010828;28;20497;-74
2022/05/22 06:04:47;;;;;;;12.75;3.80;;;;;;;;;;5011833;28;20124;-74
2022/05/22 06:07:13;;;;;;;12.48;3.95;;;;;;;;;;5010637;28;20045;-74
2022/05/22 06:09:39;;;;;;;10.63;3.50;;;;;;;;;;5009610;28;20085;-74
2022/05/22 06:12:05;;;;;;;13.77;4.00;;;;;;;;;;5011996;28;20042;-74
2022/05/22 06:14:32;;;;;;;12.00;3.60;;;;;;;;;;5009678;28;20065;-74
2022/05/22 06:16:58;;;;;;;12.00;3.50;;;;;;;;;;5011907;28;20108;-74
2022/05/22 06:22:09;;;;;;;15.48;3.90;;;;;;;;;;5009445;28;20054;-74
2022/05/22 06:24:36;;;;;;;14.23;4.07;;;;;;;;;;5012300;28;20042;-74
2022/05/22 06:27:02;;;;;;;12.48;3.65;;;;;;;;;;5011058;28;20076;-74
2022/05/22 06:29:29;;;;;;;12.68;4.05;;;;;;;;;;4996145;28;20046;-75
2022/05/22 06:31:55;;;;;;;12.18;3.80;;;;;;;;;;4993049;28;20054;-75
2022/05/22 06:34:22;;;;;;;12.32;4.03;;;;;;;;;;4991760;28;20559;-75
2022/05/22 06:36:49;;;;;;;14.27;4.20;;;;;;;;;;4996804;28;20046;-74
2022/05/22 06:41:59;;;;;;;14.70;4.18;;;;;;;;;;5009236;28;20042;-73
2022/05/22 06:44:25;;;;;;;11.50;3.97;;;;;;;;;;5016164;28;20049;-74
2022/05/22 06:46:51;;;;;;;16.30;4.30;;;;;;;;;;5013748;28;20045;-73
2022/05/22 06:49:17;;;;;;;14.85;4.28;;;;;;;;;;5015429;28;20522;-74
2022/05/22 06:51:43;;;;;;;14.10;4.45;;;;;;;;;;5028786;28;20041;-74
2022/05/22 06:54:09;;;;;;;12.27;4.30;;;;;;;;;;5020566;28;20409;-74
2022/05/22 06:56:35;;;;;;;15.98;4.47;;;;;;;;;;5013553;28;20129;-74
2022/05/22 06:59:01;;;;;;;13.95;3.70;;;;;;;;;;5009346;28;20046;-74
2022/05/22 07:01:27;;;;;;;12.30;3.95;;;;;;;;;;5002722;28;20124;-74
2022/05/22 07:03:53;;;;;;;14.38;3.72;;;;;;;;;;5015123;28;20042;-74
2022/05/22 07:06:19;;;;;;;14.65;3.65;;;;;;;;;;5012845;28;20408;-73
2022/05/22 07:08:45;;;;;;;13.05;3.97;;;;;;;;;;5013420;28;20096;-74
2022/05/22 07:13:55;;;;;;;11.30;3.45;;;;;;;;;;5019256;28;20038;-73
2022/05/22 07:16:21;;;;;;;11.90;2.90;;;;;;;;;;5015428;28;20558;-74
2022/05/22 07:18:47;;;;;;;11.82;2.72;;;;;;;;;;5015253;28;20054;-75
2022/05/22 07:21:13;;;;;;;11.88;3.00;;;;;;;;;;5015002;28;20365;-75
2022/05/22 07:23:39;;;;;;;9.95;2.53;;;;;;;;;;5014162;28;20080;-74
2022/05/22 07:26:05;;;;;;;11.68;3.38;;;;;;;;;;5015427;28;20456;-74
2022/05/22 07:28:32;;;;;;;10.45;3.00;;;;;;;;;;5014522;28;20042;-74
2022/05/22 07:30:58;;;;;;;12.55;2.90;;;;;;;;;;5027030;28;20660;-73
2022/05/22 07:33:24;;;;;;;13.20;3.03;;;;;;;;;;5035733;28;20038;-74
2022/05/22 07:35:56;;;;;;;10.32;2.92;;;;;;;;;;5026294;28;20041;-74
2022/05/22 07:38:23;;;;;;;11.48;2.78;;;;;;;;;;5015037;28;20057;-75
2022/05/22 07:40:49;;;;;;;7.53;2.17;;;;;;;;;;5015290;28;20045;-75
2022/05/22 07:43:16;;;;;;;8.73;2.30;;;;;;;;;;5015003;28;20050;-76
2022/05/22 07:45:42;;;;;;;9.85;2.38;;;;;;;;;;5015777;28;20057;-74
2022/05/22 07:48:08;;;;;;;12.43;3.05;;;;;;;;;;5014857;28;20068;-74
2022/05/22 07:50:34;;;;;;;9.55;3.13;;;;;;;;;;5014176;28;20144;-74
2022/05/22 07:53:00;;;;;;;9.45;2.78;;;;;;;;;;5014061;28;20459;-75
2022/05/22 07:55:26;;;;;;;9.55;2.72;;;;;;;;;;5015073;28;20519;-75
2022/05/22 07:57:52;;;;;;;10.70;2.80;;;;;;;;;;5015342;28;20068;-75
2022/05/22 08:00:20;;;;;;;9.48;3.00;;;;;;;;;;5013607;28;20431;-75
2022/05/22 08:02:46;;;;;;;10.38;2.70;;;;;;;;;;5013884;28;20046;-75
2022/05/22 08:05:13;;;;;;;9.45;2.78;;;;;;;;;;5015299;28;20575;-75
2022/05/22 08:07:39;;;;;;;9.35;2.45;;;;;;;;;;5013531;28;20488;-75
2022/05/22 08:10:06;;;;;;;12.27;2.60;;;;;;;;;;5013387;28;20120;-75
2022/05/22 08:12:36;;;;;;;12.45;3.00;;;;;;;;;;5014974;28;20423;-75
2022/05/22 08:15:03;;;;;;;10.23;2.53;;;;;;;;;;5014269;28;20054;-75
2022/05/22 08:17:32;;;;;;;9.27;2.47;;;;;;;;;;5015130;28;20046;-75
2022/05/22 08:19:58;;;;;;;8.85;2.67;;;;;;;;;;5013063;28;20042;-75
2022/05/22 08:22:24;;;;;;;11.43;3.30;;;;;;;;;;5014197;28;20045;-75
2022/05/22 08:24:50;;;;;;;10.65;2.63;;;;;;;;;;5015476;28;20435;-76
2022/05/22 08:27:16;;;;;;;11.63;3.03;;;;;;;;;;5014425;28;20053;-75
2022/05/22 08:29:42;;;;;;;13.25;3.10;;;;;;;;;;5014344;28;20061;-75
2022/05/22 08:32:08;;;;;;;9.85;2.53;;;;;;;;;;5015284;28;20042;-75
2022/05/22 08:34:34;;;;;;;9.95;2.72;;;;;;;;;;5013144;28;20121;-75
2022/05/22 08:37:00;;;;;;;12.38;2.70;;;;;;;;;;5015273;28;20183;-75
2022/05/22 08:39:27;;;;;;;12.10;2.70;;;;;;;;;;5014668;28;20044;-75
2022/05/22 08:41:56;;;;;;;11.93;2.58;;;;;;;;;;5015304;28;20412;-75
2022/05/22 08:44:25;;;;;;;11.90;2.70;;;;;;;;;;5014587;28;20077;-75
2022/05/22 08:47:10;;;;;;;13.55;2.83;;;;;;;;;;5014977;28;20050;-75
2022/05/22 08:49:43;;;;;;;14.25;2.92;;;;;;;;;;5014053;28;20046;-74
2022/05/22 08:52:13;;;;;;;10.30;2.42;;;;;;;;;;5015057;28;20050;-74
2022/05/22 08:54:45;;;;;;;12.88;2.78;;;;;;;;;;5014555;28;20081;-75
2022/05/22 09:00:11;;;;;;;12.40;2.63;;;;;;;;;;5012958;28;20042;-76
2022/05/22 09:02:43;;;;;;;9.80;2.33;;;;;;;;;;5014003;28;20069;-75
2022/05/22 09:05:14;;;;;;;9.07;2.25;;;;;;;;;;5013524;28;20049;-74
2022/05/22 09:07:58;;;;;;;8.90;2.42;;;;;;;;;;5015990;28;20053;-74
2022/05/22 09:10:33;;;;;;;13.02;2.45;;;;;;;;;;5025673;28;20127;-74
2022/05/22 09:13:04;;;;;;;9.25;2.40;;;;;;;;;;5020758;28;20057;-74
2022/05/22 09:15:30;;;;;;;;;;;;;;;;;;4997453;28;20493;-74
2022/05/22 09:18:06;;;;;;;9.73;2.30;;;;;;;;;;4997296;28;19928;-74
2022/05/22 09:20:55;;;;;;;10.40;2.55;;;;;;;;;;4995764;28;20050;-74
2022/05/22 09:23:22;;;;;;;11.18;2.40;;;;;;;;;;4995396;28;20053;-74
2022/05/22 09:26:07;;;;;;;8.95;2.20;;;;;;;;;;5007008;28;20042;-74
2022/05/22 09:28:39;;;;;;;9.65;2.10;;;;;;;;;;5014463;28;20046;-75
2022/05/22 09:31:24;;;;;;;9.57;1.90;;;;;;;;;;5015307;28;20073;-75
2022/05/22 09:33:59;;;;;;;8.73;2.25;;;;;;;;;;5013894;28;20042;-75
2022/05/22 09:36:40;;;;;;;8.02;1.85;;;;;;;;;;5009295;28;20120;-74
2022/05/22 09:39:18;;;;;;;9.77;2.10;;;;;;;;;;4998758;28;20054;-75
2022/05/22 09:41:47;;;;;;;11.18;2.10;;;;;;;;;;5015934;28;20057;-74
2022/05/22 09:44:22;;;;;;;11.43;2.20;;;;;;;;;;5015439;28;20042;-74
2022/05/22 09:47:15;;;;;;;11.10;2.40;;;;;;;;;;5028439;28;20468;-74
2022/05/22 09:49:41;;;;;;;9.45;2.08;;;;;;;;;;4992714;28;20046;-74
2022/05/22 09:52:14;;;;;;;11.85;2.45;;;;;;;;;;5014905;28;20118;-74
2022/05/22 09:54:54;;;;;;;10.95;2.45;;;;;;;;;;5005321;28;20150;-74
2022/05/22 09:57:37;;;;;;;9.80;2.17;;;;;;;;;;5004923;28;20073;-75
2022/05/22 10:00:03;;;;;;;9.80;2.25;;;;;;;;;;5005484;28;20381;-75
2022/05/22 10:02:41;;;;;;;10.18;2.10;;;;;;;;;;5012072;28;20050;-75
2022/05/22 10:05:30;;;;;;;9.85;2.00;;;;;;;;;;5008332;28;20111;-75
2022/05/22 10:08:03;;;;;;;10.77;2.17;;;;;;;;;;5014108;28;20539;-75
2022/05/22 10:10:45;;;;;;;9.80;2.33;;;;;;;;;;5012590;28;20093;-74
2022/05/22 10:13:20;;;;;;;10.50;2.05;;;;;;;;;;5014134;28;20046;-75
2022/05/22 10:16:05;;;;;;;10.18;2.33;;;;;;;;;;5019519;28;20041;-75
2022/05/22 10:18:54;;;;;;;10.07;2.28;;;;;;;;;;4998201;28;20393;-76
2022/05/22 10:21:32;;;;;;;8.88;2.45;;;;;;;;;;5013516;28;20038;-77
2022/05/22 10:24:01;;;;;;;10.75;2.67;;;;;;;;;;5017258;28;20050;-75
2022/05/22 10:26:33;;;;;;;9.73;2.42;;;;;;;;;;5016598;28;20048;-74
2022/05/22 10:29:03;;;;;;;10.20;2.00;;;;;;;;;;5007867;28;20132;-75
2022/05/22 10:31:34;;;;;;;9.27;2.13;;;;;;;;;;4998769;28;20046;-73
2022/05/22 10:34:14;;;;;;;8.55;2.05;;;;;;;;;;5002934;28;20455;-74
2022/05/22 10:36:57;;;;;;;10.60;2.42;;;;;;;;;;5014786;28;20054;-74
2022/05/22 10:39:24;;;;;;;10.48;2.25;;;;;;;;;;5015019;28;20049;-75
2022/05/22 10:44:51;;;;;;;8.85;2.00;;;;;;;;;;5017313;28;20054;-73
2022/05/22 10:47:27;;;;;;;9.35;1.92;;;;;;;;;;5017492;28;20100;-73
2022/05/22 10:49:54;;;;;;;9.27;1.95;;;;;;;;;;5019096;28;20081;-74
2022/05/22 10:52:24;;;;;;;7.80;1.65;;;;;;;;;;5019474;28;20042;-74
2022/05/22 10:54:54;;;;;;;10.83;1.83;;;;;;;;;;5018191;28;20045;-74
2022/05/22 10:57:22;;;;;;;8.50;2.00;;;;;;;;;;5018209;28;20301;-73
2022/05/22 10:59:48;;;;;;;8.10;1.85;;;;;;;;;;5019108;28;20050;-74
2022/05/22 11:02:17;;;;;;;8.80;2.10;;;;;;;;;;5018156;28;20495;-73
2022/05/22 11:04:44;;;;;;;7.30;1.75;;;;;;;;;;5017515;28;20081;-73
2022/05/22 11:07:11;;;;;;;9.90;2.20;;;;;;;;;;5015826;28;20042;-73
2022/05/22 11:09:48;;;;;;;7.78;1.58;;;;;;;;;;5018993;28;20068;-73
2022/05/22 11:12:15;;;;;;;8.90;1.80;;;;;;;;;;5018465;28;20057;-73
2022/05/22 11:14:41;;;;;;;8.95;1.98;;;;;;;;;;5019141;28;20052;-74
2022/05/22 11:17:16;;;;;;;7.20;1.70;;;;;;;;;;5019597;28;20042;-74
2022/05/22 11:19:43;;;;;;;8.05;1.80;;;;;;;;;;5016048;28;20050;-74
2022/05/22 11:22:18;;;;;;;8.20;2.00;;;;;;;;;;5013259;28;20049;-74
2022/05/22 11:24:44;;;;;;;9.13;2.05;;;;;;;;;;5007835;28;20050;-74
2022/05/22 11:27:10;;;;;;;7.40;1.75;;;;;;;;;;5011169;28;20038;-74
2022/05/22 11:29:57;;;;;;;9.63;1.83;;;;;;;;;;5018442;28;20045;-73
2022/05/22 11:32:35;;;;;;;8.52;1.80;;;;;;;;;;5016041;28;20574;-74
2022/05/22 11:35:20;;;;;;;9.30;1.92;;;;;;;;;;5008864;28;20192;-74
2022/05/22 11:38:04;;;;;;;9.32;1.88;;;;;;;;;;5000237;28;20100;-74
2022/05/22 11:40:49;;;;;;;10.00;1.77;;;;;;;;;;4997728;28;20042;-74
2022/05/22 11:43:31;;;;;;;10.20;1.70;;;;;;;;;;5016303;28;20050;-74
2022/05/22 11:46:12;;;;;;;7.75;1.30;;;;;;;;;;5006268;28;20058;-74
2022/05/22 11:48:38;;;;;;;;;;;;;;;;;;5018906;28;20080;-73
2022/05/22 11:51:09;;;;;;;9.80;1.60;;;;;;;;;;5017608;28;19921;-73
2022/05/22 11:53:44;;;;;;;6.70;1.70;;;;;;;;;;5016529;28;20049;-73
2022/05/22 11:56:16;;;;;;;7.68;1.60;;;;;;;;;;5018785;28;20052;-73
2022/05/22 11:59:02;;;;;;;8.77;1.70;;;;;;;;;;5019750;28;20049;-73
2022/05/22 12:01:33;;;;;;;6.05;1.58;;;;;;;;;;5017796;28;20072;-73
2022/05/22 12:04:18;;;;;;;7.53;1.67;;;;;;;;;;5018631;28;20046;-74
2022/05/22 12:06:48;;;;;;;6.57;1.52;;;;;;;;;;5037953;28;20085;-73
2022/05/22 12:09:22;;;;;;;8.55;1.63;;;;;;;;;;5037473;28;20041;-73
2022/05/22 12:12:09;;;;;;;11.05;2.50;;;;;;;;;;5036983;28;20076;-73
2022/05/22 12:14:35;;;;;;;9.80;1.92;;;;;;;;;;5035452;28;20500;-73
2022/05/22 12:17:18;;;;;;;10.63;1.70;;;;;;;;;;5035268;28;20103;-74
2022/05/22 12:20:03;;;;;;;6.65;1.38;;;;;;;;;;5016698;28;20054;-73
2022/05/22 12:25:23;;;;;;;7.80;1.58;;;;;;;;;;5014298;28;20050;-73
2022/05/22 12:27:50;;;;;;;7.50;1.55;;;;;;;;;;5016823;28;20499;-73
2022/05/22 12:30:34;;;;;;;6.97;1.50;;;;;;;;;;5017186;28;20046;-73
2022/05/22 12:33:05;;;;;;;9.32;2.00;;;;;;;;;;5019476;28;20042;-73
2022/05/22 12:35:31;;;;;;;9.93;1.77;;;;;;;;;;5017610;28;20087;-74
2022/05/22 12:38:02;;;;;;;7.18;2.03;;;;;;;;;;5019317;28;20101;-74
2022/05/22 12:40:35;;;;;;;8.38;1.80;;;;;;;;;;5018825;28;20030;-74
2022/05/22 12:43:02;;;;;;;7.72;1.77;;;;;;;;;;5014851;28;20041;-73
2022/05/22 12:45:29;;;;;;;8.52;1.80;;;;;;;;;;4998075;28;20046;-73
2022/05/22 12:47:56;;;;;;;8.18;1.77;;;;;;;;;;4998097;28;20050;-73
2022/05/22 12:50:41;;;;;;;8.52;1.73;;;;;;;;;;4999501;28;20034;-73
2022/05/22 12:53:15;;;;;;;6.70;1.23;;;;;;;;;;5006895;28;20132;-74
2022/05/22 12:55:41;;;;;;;6.68;1.60;;;;;;;;;;5017343;28;20050;-74
2022/05/22 12:58:07;;;;;;;8.52;1.60;;;;;;;;;;5018803;28;20050;-74
2022/05/22 13:00:38;;;;;;;9.15;1.80;;;;;;;;;;5016978;28;20045;-74
2022/05/22 13:03:11;;;;;;;6.95;1.48;;;;;;;;;;5016340;28;20049;-74
2022/05/22 13:05:37;;;;;;;6.40;1.70;;;;;;;;;;5017143;28;20050;-74
2022/05/22 13:08:13;;;;;;;6.40;1.40;;;;;;;;;;5016406;28;20045;-73
2022/05/22 13:10:48;;;;;;;7.22;1.30;;;;;;;;;;5016986;28;20400;-73
2022/05/22 13:13:22;;;;;;;9.25;1.58;;;;;;;;;;5019082;28;20053;-73
2022/05/22 13:15:55;;;;;;;6.78;1.73;;;;;;;;;;5019877;28;20050;-74
2022/05/22 13:18:21;;;;;;;7.53;1.50;;;;;;;;;;5020890;28;20167;-74
2022/05/22 13:20:50;;;;;;;6.45;1.40;;;;;;;;;;5022214;28;20045;-74
2022/05/22 13:23:22;;;;;;;8.32;1.63;;;;;;;;;;5020426;28;20077;-73
2022/05/22 13:25:52;;;;;;;7.05;1.45;;;;;;;;;;5021814;28;20563;-73
2022/05/22 13:28:20;;;;;;;7.00;1.50;;;;;;;;;;5022365;28;20034;-73
2022/05/22 13:30:49;;;;;;;6.75;1.50;;;;;;;;;;5022897;28;20252;-74
2022/05/22 13:33:15;;;;;;;7.38;1.40;;;;;;;;;;5022562;28;20037;-73
2022/05/22 13:35:51;;;;;;;8.82;1.38;;;;;;;;;;5024518;28;20074;-74
2022/05/22 13:38:17;;;;;;;6.43;1.30;;;;;;;;;;5021440;28;20081;-73
2022/05/22 13:40:58;;;;;;;7.00;1.45;;;;;;;;;;5022787;28;20381;-73
2022/05/22 13:43:39;;;;;;;8.73;2.17;;;;;;;;;;5021980;28;20137;-73
2022/05/22 13:46:31;;;;;;;5.07;1.10;;;;;;;;;;5022370;28;20396;-74
2022/05/22 13:49:24;;;;;;;4.85;1.20;;;;;;;;;;5028343;28;20060;-74
2022/05/22 13:54:40;;;;;;;6.30;1.50;;;;;;;;;;5013513;28;20049;-74
2022/05/22 13:57:11;;;;;;;8.13;1.40;;;;;;;;;;5014412;28;20045;-74
2022/05/22 13:59:37;;;;;;;;;;;;;;;;;;5012659;28;20042;-74
2022/05/22 14:02:12;;;;;;;7.00;1.42;;;;;;;;;;5013935;28;19928;-75
2022/05/22 14:04:39;;;;;;;7.38;1.50;;;;;;;;;;5013896;28;20054;-75
2022/05/22 14:07:07;;;;;;;8.60;1.80;;;;;;;;;;5015081;28;20042;-75
2022/05/22 14:09:35;;;;;;;5.95;1.40;;;;;;;;;;5017154;28;20088;-74
2022/05/22 14:12:01;;;;;;;7.55;1.60;;;;;;;;;;5014021;28;20052;-75
2022/05/22 14:14:31;;;;;;;6.53;1.55;;;;;;;;;;5014297;28;20085;-75
2022/05/22 14:17:00;;;;;;;8.35;1.55;;;;;;;;;;5015043;28;20412;-76
2022/05/22 14:19:34;;;;;;;7.25;1.30;;;;;;;;;;5015157;28;20085;-75
2022/05/22 14:22:13;;;;;;;13.15;1.60;;;;;;;;;;5011720;28;20392;-75
2022/05/22 14:24:52;;;;;;;8.68;1.65;;;;;;;;;;5014747;28;20041;-75
2022/05/22 14:27:37;;;;;;;7.03;1.75;;;;;;;;;;5013944;28;20133;-75
2022/05/22 14:30:05;;;;;;;8.00;1.52;;;;;;;;;;5014371;28;20073;-75
2022/05/22 14:32:32;;;;;;;8.55;1.60;;;;;;;;;;5015845;28;20077;-75
2022/05/22 14:34:58;;;;;;;7.18;1.63;;;;;;;;;;5013907;28;20038;-75
2022/05/22 14:37:24;;;;;;;7.22;1.27;;;;;;;;;;5017921;28;20054;-75
2022/05/22 14:39:51;;;;;;;7.47;1.63;;;;;;;;;;5017357;28;20177;-76
2022/05/22 14:42:20;;;;;;;6.88;1.70;;;;;;;;;;5017780;28;20103;-75
2022/05/22 14:44:46;;;;;;;6.47;1.58;;;;;;;;;;5017427;28;20045;-75
2022/05/22 14:47:19;;;;;;;7.75;1.45;;;;;;;;;;5015655;28;20107;-76
2022/05/22 14:49:49;;;;;;;6.88;1.23;;;;;;;;;;5011946;28;20611;-75
2022/05/22 14:52:54;;;;;;;10.35;1.30;;;;;;;;;;5015732;28;20049;-75
2022/05/22 14:55:24;;;;;;;6.70;1.50;;;;;;;;;;4937581;29;20060;-75
2022/05/22 14:58:00;;;;;;;6.03;1.27;;;;;;;;;;4922744;29;20129;-75
2022/05/22 15:00:29;;;;;;;7.30;1.30;;;;;;;;;;4942061;29;20063;-75
2022/05/22 15:02:58;;;;;;;5.47;1.23;;;;;;;;;;4942055;29;20044;-75
2022/05/22 15:05:54;;;;;;;8.35;1.48;;;;;;;;;;4941782;29;20058;-75
2022/05/22 15:08:29;;;;;;;7.45;1.40;;;;;;;;;;4932251;29;20064;-75
2022/05/22 15:10:55;;;;;;;6.18;1.67;;;;;;;;;;4911946;29;20633;-74
2022/05/22 15:13:28;;;;;;;5.68;1.30;;;;;;;;;;4921271;29;20052;-75
2022/05/22 15:16:05;;;;;;;5.65;1.33;;;;;;;;;;4920915;29;20144;-75
2022/05/22 15:21:17;;;;;;;6.28;1.50;;;;;;;;;;4919932;29;20052;-75